createdAt,value
2018-07-31T00:00:58.418Z,0
2018-07-31T00:01:58.402Z,0
2018-07-31T00:02:58.664Z,0
2018-07-31T00:03:58.656Z,0
2018-07-31T00:04:58.397Z,0
2018-07-31T00:05:58.109Z,0
2018-07-31T00:06:58.635Z,0
2018-07-31T00:07:58.093Z,0
2018-07-31T00:08:58.880Z,0
2018-07-31T00:09:58.346Z,0
2018-07-31T00:10:58.075Z,0
2018-07-31T00:11:58.594Z,0
2018-07-31T00:12:58.082Z,0
2018-07-31T00:13:58.849Z,0
2018-07-31T00:14:58.578Z,0
2018-07-31T00:15:58.298Z,0
2018-07-31T00:16:58.041Z,0
2018-07-31T00:17:58.021Z,0
2018-07-31T00:18:58.275Z,0
2018-07-31T00:19:59.013Z,0
2018-07-31T00:20:58.261Z,0
2018-07-31T00:21:57.745Z,0
2018-07-31T00:22:58.512Z,0
2018-07-31T00:23:58.773Z,0
2018-07-31T00:24:58.497Z,0
2018-07-31T00:25:58.225Z,0
2018-07-31T00:26:58.226Z,0
2018-07-31T00:27:57.951Z,0
2018-07-31T00:28:58.203Z,0
2018-07-31T00:29:58.199Z,0
2018-07-31T00:30:58.186Z,0
2018-07-31T00:31:58.187Z,0
2018-07-31T00:32:58.458Z,0
2018-07-31T00:33:58.176Z,0
2018-07-31T00:34:57.894Z,0
2018-07-31T00:35:57.896Z,0
2018-07-31T00:36:58.412Z,0
2018-07-31T00:37:58.404Z,0
2018-07-31T00:38:58.403Z,0
2018-07-31T00:39:57.863Z,0
2018-07-31T00:40:58.122Z,0
2018-07-31T00:41:58.387Z,0
2018-07-31T00:42:58.629Z,0
2018-07-31T00:43:58.108Z,0
2018-07-31T00:44:58.079Z,0
2018-07-31T00:45:58.112Z,0
2018-07-31T00:46:58.334Z,0
2018-07-31T00:47:58.592Z,0
2018-07-31T00:48:57.525Z,0
2018-07-31T00:49:57.794Z,0
2018-07-31T00:50:58.304Z,0
2018-07-31T00:51:58.298Z,0
2018-07-31T00:52:58.020Z,0
2018-07-31T00:53:58.015Z,0
2018-07-31T00:54:57.490Z,0
2018-07-31T00:55:58.266Z,0
2018-07-31T00:56:58.519Z,0
2018-07-31T00:57:57.989Z,0
2018-07-31T00:58:58.251Z,0
2018-07-31T00:59:58.247Z,0
2018-07-31T01:00:58.231Z,0
2018-07-31T01:01:58.220Z,0
2018-07-31T01:02:57.427Z,0
2018-07-31T01:03:58.207Z,0
2018-07-31T01:04:57.938Z,0
2018-07-31T01:05:57.924Z,0
2018-07-31T01:06:57.915Z,0
2018-07-31T01:07:58.171Z,0
2018-07-31T01:08:57.909Z,0
2018-07-31T01:09:58.426Z,0
2018-07-31T01:10:58.404Z,0
2018-07-31T01:11:58.147Z,0
2018-07-31T01:12:57.876Z,0
2018-07-31T01:13:58.139Z,0
2018-07-31T01:14:57.592Z,0
2018-07-31T01:15:58.115Z,0
2018-07-31T01:16:57.845Z,0
2018-07-31T01:17:57.577Z,0
2018-07-31T01:18:58.357Z,0
2018-07-31T01:19:57.549Z,0
2018-07-31T01:20:57.810Z,0
2018-07-31T01:21:58.060Z,0
2018-07-31T01:22:57.272Z,0
2018-07-31T01:23:58.058Z,0
2018-07-31T01:24:58.037Z,0
2018-07-31T01:25:58.034Z,0
2018-07-31T01:26:57.763Z,0
2018-07-31T01:27:58.026Z,0
2018-07-31T01:28:58.009Z,0
2018-07-31T01:29:58.266Z,0
2018-07-31T01:30:58.254Z,0
2018-07-31T01:31:57.466Z,0
2018-07-31T01:32:57.717Z,0
2018-07-31T01:33:57.967Z,0
2018-07-31T01:34:58.228Z,0
2018-07-31T01:35:57.952Z,0
2018-07-31T01:36:57.422Z,0
2018-07-31T01:37:57.677Z,0
2018-07-31T01:38:57.929Z,0
2018-07-31T01:39:57.404Z,0
2018-07-31T01:40:57.917Z,0
2018-07-31T01:41:57.903Z,0
2018-07-31T01:42:57.652Z,0
2018-07-31T01:43:57.359Z,0
2018-07-31T01:44:57.617Z,0
2018-07-31T01:45:57.795Z,0
2018-07-31T01:46:57.334Z,0
2018-07-31T01:47:57.858Z,0
2018-07-31T01:48:57.845Z,0
2018-07-31T01:49:58.115Z,0
2018-07-31T01:50:57.586Z,0
2018-07-31T01:51:57.579Z,0
2018-07-31T01:52:57.291Z,0
2018-07-31T01:53:57.819Z,0
2018-07-31T01:54:57.809Z,0
2018-07-31T01:55:58.075Z,0
2018-07-31T01:56:57.260Z,0
2018-07-31T01:57:57.802Z,0
2018-07-31T01:58:56.971Z,0
2018-07-31T01:59:57.495Z,0
2018-07-31T02:00:57.483Z,0
2018-07-31T02:01:57.222Z,0
2018-07-31T02:02:57.730Z,0
2018-07-31T02:03:57.470Z,0
2018-07-31T02:04:57.192Z,0
2018-07-31T02:05:57.211Z,0
2018-07-31T02:06:57.453Z,0
2018-07-31T02:07:57.710Z,0
2018-07-31T02:08:57.428Z,0
2018-07-31T02:09:57.707Z,0
2018-07-31T02:10:57.413Z,0
2018-07-31T02:11:57.414Z,0
2018-07-31T02:12:57.394Z,0
2018-07-31T02:13:57.667Z,0
2018-07-31T02:14:57.659Z,0
2018-07-31T02:15:57.623Z,0
2018-07-31T02:16:56.837Z,0
2018-07-31T02:17:57.609Z,0
2018-07-31T02:18:57.601Z,0
2018-07-31T02:19:57.814Z,0
2018-07-31T02:20:57.589Z,0
2018-07-31T02:21:57.309Z,0
2018-07-31T02:22:57.583Z,0
2018-07-31T02:23:57.031Z,0
2018-07-31T02:24:57.830Z,0
2018-07-31T02:25:57.015Z,0
2018-07-31T02:26:57.273Z,0
2018-07-31T02:27:57.507Z,0
2018-07-31T02:28:57.532Z,0
2018-07-31T02:29:57.521Z,0
2018-07-31T02:30:57.780Z,0
2018-07-31T02:31:57.252Z,0
2018-07-31T02:32:56.962Z,0
2018-07-31T02:33:56.977Z,0
2018-07-31T02:34:57.208Z,0
2018-07-31T02:35:56.943Z,0
2018-07-31T02:36:57.468Z,0
2018-07-31T02:37:56.921Z,0
2018-07-31T02:38:57.444Z,0
2018-07-31T02:39:57.709Z,0
2018-07-31T02:40:57.163Z,0
2018-07-31T02:41:57.423Z,0
2018-07-31T02:42:56.882Z,0
2018-07-31T02:43:57.160Z,0
2018-07-31T02:44:57.408Z,0
2018-07-31T02:45:57.376Z,0
2018-07-31T02:46:57.994Z,0
2018-07-31T02:47:57.617Z,0
2018-07-31T02:48:57.351Z,0
2018-07-31T02:49:57.076Z,0
2018-07-31T02:50:56.804Z,0
2018-07-31T02:51:57.321Z,0
2018-07-31T02:52:57.080Z,0
2018-07-31T02:53:56.783Z,0
2018-07-31T02:54:57.322Z,0
2018-07-31T02:55:57.299Z,0
2018-07-31T02:56:56.492Z,0
2018-07-31T02:57:57.005Z,0
2018-07-31T02:58:57.011Z,0
2018-07-31T02:59:56.997Z,0
2018-07-31T03:00:57.309Z,0
2018-07-31T03:01:57.254Z,0
2018-07-31T03:02:56.965Z,0
2018-07-31T03:03:56.965Z,0
2018-07-31T03:04:56.949Z,0
2018-07-31T03:05:57.211Z,0
2018-07-31T03:06:57.198Z,0
2018-07-31T03:07:56.923Z,0
2018-07-31T03:08:56.666Z,0
2018-07-31T03:09:57.189Z,0
2018-07-31T03:10:57.440Z,0
2018-07-31T03:11:56.911Z,0
2018-07-31T03:12:56.879Z,0
2018-07-31T03:13:56.884Z,0
2018-07-31T03:14:57.131Z,0
2018-07-31T03:15:57.119Z,0
2018-07-31T03:16:57.121Z,0
2018-07-31T03:17:56.323Z,0
2018-07-31T03:18:57.095Z,0
2018-07-31T03:19:57.091Z,0
2018-07-31T03:20:57.078Z,0
2018-07-31T03:21:56.793Z,0
2018-07-31T03:22:57.083Z,0
2018-07-31T03:23:57.064Z,0
2018-07-31T03:24:57.291Z,0
2018-07-31T03:25:56.793Z,0
2018-07-31T03:26:57.293Z,0
2018-07-31T03:27:56.489Z,0
2018-07-31T03:28:56.477Z,0
2018-07-31T03:29:56.779Z,0
2018-07-31T03:30:56.736Z,0
2018-07-31T03:31:56.996Z,0
2018-07-31T03:32:57.248Z,0
2018-07-31T03:33:56.440Z,0
2018-07-31T03:34:56.691Z,0
2018-07-31T03:35:57.219Z,0
2018-07-31T03:36:56.674Z,0
2018-07-31T03:37:56.927Z,0
2018-07-31T03:38:56.653Z,0
2018-07-31T03:39:56.902Z,0
2018-07-31T03:40:56.373Z,0
2018-07-31T03:41:56.889Z,0
2018-07-31T03:42:56.890Z,0
2018-07-31T03:43:56.339Z,0
2018-07-31T03:44:56.852Z,0
2018-07-31T03:45:56.322Z,0
2018-07-31T03:46:56.848Z,0
2018-07-31T03:47:56.835Z,0
2018-07-31T03:48:56.832Z,0
2018-07-31T03:49:56.640Z,0
2018-07-31T03:50:56.815Z,0
2018-07-31T03:51:56.551Z,0
2018-07-31T03:52:56.000Z,0
2018-07-31T03:53:57.049Z,0
2018-07-31T03:54:56.510Z,0
2018-07-31T03:55:56.772Z,5
2018-07-31T03:56:56.755Z,5
2018-07-31T03:57:56.490Z,5
2018-07-31T03:58:56.750Z,5
2018-07-31T03:59:56.742Z,5
2018-07-31T04:00:56.197Z,5
2018-07-31T04:01:55.920Z,5
2018-07-31T04:02:56.442Z,5
2018-07-31T04:03:56.697Z,5
2018-07-31T04:04:56.691Z,5
2018-07-31T04:05:56.678Z,5
2018-07-31T04:06:56.930Z,5
2018-07-31T04:07:56.392Z,10
2018-07-31T04:08:56.385Z,10
2018-07-31T04:09:56.379Z,10
2018-07-31T04:10:56.624Z,10
2018-07-31T04:11:56.357Z,10
2018-07-31T04:12:56.080Z,10
2018-07-31T04:13:56.341Z,10
2018-07-31T04:14:56.593Z,10
2018-07-31T04:15:56.058Z,10
2018-07-31T04:16:56.514Z,10
2018-07-31T04:17:56.578Z,10
2018-07-31T04:18:56.294Z,10
2018-07-31T04:19:57.071Z,10
2018-07-31T04:20:56.534Z,15
2018-07-31T04:21:56.273Z,15
2018-07-31T04:22:56.257Z,15
2018-07-31T04:23:55.981Z,15
2018-07-31T04:24:56.602Z,15
2018-07-31T04:25:55.973Z,15
2018-07-31T04:26:56.221Z,15
2018-07-31T04:27:56.217Z,15
2018-07-31T04:28:56.465Z,15
2018-07-31T04:29:56.199Z,15
2018-07-31T04:30:56.456Z,20
2018-07-31T04:31:56.446Z,20
2018-07-31T04:32:56.170Z,20
2018-07-31T04:33:56.422Z,20
2018-07-31T04:34:56.415Z,20
2018-07-31T04:35:56.615Z,20
2018-07-31T04:36:56.661Z,20
2018-07-31T04:37:56.121Z,20
2018-07-31T04:38:56.121Z,20
2018-07-31T04:39:55.844Z,20
2018-07-31T04:40:56.105Z,20
2018-07-31T04:41:56.346Z,20
2018-07-31T04:42:56.103Z,20
2018-07-31T04:43:55.809Z,25
2018-07-31T04:44:56.370Z,25
2018-07-31T04:45:55.787Z,25
2018-07-31T04:46:56.306Z,25
2018-07-31T04:47:56.295Z,25
2018-07-31T04:48:56.028Z,25
2018-07-31T04:49:56.016Z,25
2018-07-31T04:50:56.559Z,25
2018-07-31T04:51:56.012Z,25
2018-07-31T04:52:55.999Z,30
2018-07-31T04:53:55.981Z,30
2018-07-31T04:54:55.714Z,30
2018-07-31T04:55:55.960Z,30
2018-07-31T04:56:56.506Z,35
2018-07-31T04:57:55.956Z,35
2018-07-31T04:58:56.463Z,35
2018-07-31T04:59:55.935Z,35
2018-07-31T05:00:56.179Z,35
2018-07-31T05:01:55.378Z,35
2018-07-31T05:02:55.638Z,35
2018-07-31T05:03:55.897Z,35
2018-07-31T05:04:55.629Z,40
2018-07-31T05:05:55.611Z,40
2018-07-31T05:06:56.140Z,40
2018-07-31T05:07:56.373Z,40
2018-07-31T05:08:55.855Z,40
2018-07-31T05:09:56.378Z,45
2018-07-31T05:10:55.665Z,45
2018-07-31T05:11:55.827Z,45
2018-07-31T05:12:55.819Z,45
2018-07-31T05:13:55.810Z,45
2018-07-31T05:14:55.541Z,50
2018-07-31T05:15:56.331Z,50
2018-07-31T05:16:55.511Z,50
2018-07-31T05:17:55.768Z,50
2018-07-31T05:18:55.768Z,50
2018-07-31T05:19:56.015Z,55
2018-07-31T05:20:56.007Z,55
2018-07-31T05:21:55.467Z,55
2018-07-31T05:22:56.252Z,55
2018-07-31T05:23:55.460Z,55
2018-07-31T05:24:55.965Z,55
2018-07-31T05:25:55.437Z,55
2018-07-31T05:26:55.421Z,55
2018-07-31T05:27:55.952Z,50
2018-07-31T05:28:55.934Z,50
2018-07-31T05:29:55.405Z,50
2018-07-31T05:30:55.918Z,50
2018-07-31T05:31:55.131Z,50
2018-07-31T05:32:56.144Z,50
2018-07-31T05:33:55.108Z,50
2018-07-31T05:34:55.352Z,50
2018-07-31T05:35:55.350Z,50
2018-07-31T05:36:55.874Z,50
2018-07-31T05:37:55.597Z,50
2018-07-31T05:38:56.112Z,50
2018-07-31T05:39:55.841Z,50
2018-07-31T05:40:55.572Z,50
2018-07-31T05:41:55.564Z,50
2018-07-31T05:42:55.283Z,50
2018-07-31T05:43:55.543Z,50
2018-07-31T05:44:55.798Z,50
2018-07-31T05:45:55.797Z,50
2018-07-31T05:46:55.524Z,50
2018-07-31T05:47:55.781Z,50
2018-07-31T05:48:55.235Z,55
2018-07-31T05:49:55.243Z,55
2018-07-31T05:50:55.482Z,55
2018-07-31T05:51:55.322Z,55
2018-07-31T05:52:55.209Z,55
2018-07-31T05:53:55.478Z,55
2018-07-31T05:54:55.184Z,55
2018-07-31T05:55:55.486Z,55
2018-07-31T05:56:55.449Z,55
2018-07-31T05:57:55.166Z,55
2018-07-31T05:58:55.706Z,55
2018-07-31T05:59:55.678Z,55
2018-07-31T06:00:55.654Z,55
2018-07-31T06:01:55.394Z,55
2018-07-31T06:02:55.117Z,55
2018-07-31T06:03:55.903Z,60
2018-07-31T06:04:55.369Z,60
2018-07-31T06:05:55.096Z,60
2018-07-31T06:06:55.091Z,60
2018-07-31T06:07:55.640Z,60
2018-07-31T06:08:55.335Z,60
2018-07-31T06:09:55.337Z,60
2018-07-31T06:10:55.317Z,60
2018-07-31T06:11:55.066Z,60
2018-07-31T06:12:55.578Z,60
2018-07-31T06:13:55.560Z,60
2018-07-31T06:14:55.549Z,60
2018-07-31T06:15:55.540Z,55
2018-07-31T06:16:55.272Z,55
2018-07-31T06:17:55.264Z,55
2018-07-31T06:18:55.250Z,55
2018-07-31T06:19:55.465Z,60
2018-07-31T06:20:55.497Z,60
2018-07-31T06:21:55.242Z,60
2018-07-31T06:22:55.499Z,65
2018-07-31T06:23:55.225Z,65
2018-07-31T06:24:55.222Z,65
2018-07-31T06:25:55.473Z,65
2018-07-31T06:26:55.779Z,65
2018-07-31T06:27:54.922Z,65
2018-07-31T06:28:55.173Z,65
2018-07-31T06:29:55.177Z,70
2018-07-31T06:30:55.428Z,75
2018-07-31T06:31:55.442Z,75
2018-07-31T06:32:55.362Z,80
2018-07-31T06:33:55.408Z,85
2018-07-31T06:34:55.138Z,85
2018-07-31T06:35:55.173Z,90
2018-07-31T06:36:55.111Z,90
2018-07-31T06:37:55.383Z,90
2018-07-31T06:38:55.347Z,95
2018-07-31T06:39:54.844Z,100
2018-07-31T06:40:55.339Z,105
2018-07-31T06:41:55.073Z,110
2018-07-31T06:42:55.318Z,115
2018-07-31T06:43:55.623Z,120
2018-07-31T06:44:55.040Z,125
2018-07-31T06:45:55.044Z,130
2018-07-31T06:46:55.030Z,135
2018-07-31T06:47:55.069Z,140
2018-07-31T06:48:55.293Z,145
2018-07-31T06:49:55.267Z,145
2018-07-31T06:50:55.273Z,150
2018-07-31T06:51:54.735Z,150
2018-07-31T06:52:54.732Z,150
2018-07-31T06:53:54.453Z,155
2018-07-31T06:54:55.236Z,160
2018-07-31T06:55:54.969Z,170
2018-07-31T06:56:55.619Z,170
2018-07-31T06:57:54.954Z,175
2018-07-31T06:58:55.208Z,180
2018-07-31T06:59:54.937Z,185
2018-07-31T07:00:54.939Z,190
2018-07-31T07:01:55.199Z,195
2018-07-31T07:02:54.916Z,190
2018-07-31T07:03:55.178Z,190
2018-07-31T07:04:55.448Z,190
2018-07-31T07:05:54.371Z,190
2018-07-31T07:06:54.890Z,190
2018-07-31T07:07:54.887Z,190
2018-07-31T07:08:55.143Z,185
2018-07-31T07:09:55.147Z,175
2018-07-31T07:10:55.442Z,170
2018-07-31T07:11:54.865Z,170
2018-07-31T07:12:55.391Z,170
2018-07-31T07:13:54.868Z,170
2018-07-31T07:14:54.841Z,170
2018-07-31T07:15:54.575Z,175
2018-07-31T07:16:54.570Z,175
2018-07-31T07:17:54.565Z,170
2018-07-31T07:18:54.820Z,170
2018-07-31T07:19:54.549Z,170
2018-07-31T07:20:55.077Z,165
2018-07-31T07:21:55.060Z,160
2018-07-31T07:22:54.533Z,165
2018-07-31T07:23:54.793Z,165
2018-07-31T07:24:54.253Z,170
2018-07-31T07:25:55.047Z,170
2018-07-31T07:26:55.046Z,170
2018-07-31T07:27:55.239Z,175
2018-07-31T07:28:54.765Z,180
2018-07-31T07:29:55.029Z,180
2018-07-31T07:30:54.764Z,190
2018-07-31T07:31:54.747Z,195
2018-07-31T07:32:54.999Z,205
2018-07-31T07:33:55.075Z,215
2018-07-31T07:34:54.727Z,275
2018-07-31T07:35:54.193Z,725
2018-07-31T07:36:54.759Z,950
2018-07-31T07:37:54.716Z,705
2018-07-31T07:38:54.969Z,435
2018-07-31T07:39:54.758Z,360
2018-07-31T07:40:54.701Z,375
2018-07-31T07:41:54.966Z,610
2018-07-31T07:42:54.697Z,485
2018-07-31T07:43:54.683Z,555
2018-07-31T07:44:54.941Z,360
2018-07-31T07:45:54.678Z,500
2018-07-31T07:46:54.676Z,660
2018-07-31T07:47:55.197Z,715
2018-07-31T07:48:54.935Z,720
2018-07-31T07:49:54.404Z,705
2018-07-31T07:50:54.924Z,630
2018-07-31T07:51:55.183Z,400
2018-07-31T07:52:54.389Z,435
2018-07-31T07:53:55.446Z,385
2018-07-31T07:54:55.173Z,510
2018-07-31T07:55:54.652Z,680
2018-07-31T07:56:54.108Z,845
2018-07-31T07:57:54.643Z,1265
2018-07-31T07:58:54.900Z,1305
2018-07-31T07:59:54.632Z,1305
2018-07-31T08:00:55.146Z,1290
2018-07-31T08:01:54.891Z,890
2018-07-31T08:02:55.154Z,585
2018-07-31T08:03:55.135Z,500
2018-07-31T08:04:54.893Z,525
2018-07-31T08:05:54.614Z,580
2018-07-31T08:06:54.346Z,1030
2018-07-31T08:07:54.616Z,1105
2018-07-31T08:08:54.617Z,1330
2018-07-31T08:09:54.444Z,815
2018-07-31T08:10:54.873Z,640
2018-07-31T08:11:54.650Z,525
2018-07-31T08:12:54.875Z,375
2018-07-31T08:13:54.871Z,565
2018-07-31T08:14:54.651Z,795
2018-07-31T08:15:54.339Z,610
2018-07-31T08:16:54.610Z,535
2018-07-31T08:17:54.629Z,470
2018-07-31T08:18:54.077Z,500
2018-07-31T08:19:54.816Z,405
2018-07-31T08:20:54.864Z,530
2018-07-31T08:21:54.333Z,240
2018-07-31T08:22:54.866Z,645
2018-07-31T08:23:54.608Z,895
2018-07-31T08:24:54.333Z,790
2018-07-31T08:25:54.598Z,425
2018-07-31T08:26:54.867Z,315
2018-07-31T08:27:54.842Z,275
2018-07-31T08:28:55.132Z,240
2018-07-31T08:29:54.597Z,295
2018-07-31T08:30:54.589Z,365
2018-07-31T08:31:54.855Z,320
2018-07-31T08:32:54.845Z,655
2018-07-31T08:33:54.893Z,680
2018-07-31T08:34:54.581Z,740
2018-07-31T08:35:54.849Z,680
2018-07-31T08:36:54.852Z,555
2018-07-31T08:37:54.844Z,495
2018-07-31T08:38:54.842Z,360
2018-07-31T08:39:54.573Z,445
2018-07-31T08:40:54.583Z,290
2018-07-31T08:41:54.571Z,310
2018-07-31T08:42:55.095Z,185
2018-07-31T08:43:54.828Z,285
2018-07-31T08:44:54.559Z,260
2018-07-31T08:45:54.820Z,215
2018-07-31T08:46:54.832Z,165
2018-07-31T08:47:54.560Z,165
2018-07-31T08:48:54.826Z,160
2018-07-31T08:49:54.850Z,165
2018-07-31T08:50:55.081Z,170
2018-07-31T08:51:54.557Z,175
2018-07-31T08:52:54.815Z,185
2018-07-31T08:53:54.288Z,195
2018-07-31T08:54:54.541Z,190
2018-07-31T08:55:54.405Z,220
2018-07-31T08:56:54.394Z,240
2018-07-31T08:57:54.537Z,290
2018-07-31T08:58:54.546Z,295
2018-07-31T08:59:54.277Z,320
2018-07-31T09:00:54.781Z,325
2018-07-31T09:01:55.051Z,285
2018-07-31T09:02:55.066Z,330
2018-07-31T09:03:54.520Z,325
2018-07-31T09:04:54.782Z,360
2018-07-31T09:05:54.783Z,365
2018-07-31T09:06:54.241Z,345
2018-07-31T09:07:55.035Z,310
2018-07-31T09:08:54.636Z,335
2018-07-31T09:09:54.762Z,320
2018-07-31T09:10:54.562Z,330
2018-07-31T09:11:54.494Z,305
2018-07-31T09:12:54.486Z,325
2018-07-31T09:13:55.023Z,350
2018-07-31T09:14:55.021Z,435
2018-07-31T09:15:54.488Z,465
2018-07-31T09:16:54.473Z,425
2018-07-31T09:17:54.496Z,420
2018-07-31T09:18:54.487Z,510
2018-07-31T09:19:55.008Z,405
2018-07-31T09:20:54.520Z,390
2018-07-31T09:21:54.728Z,415
2018-07-31T09:22:54.737Z,500
2018-07-31T09:23:54.208Z,1185
2018-07-31T09:24:54.972Z,1110
2018-07-31T09:25:54.723Z,1270
2018-07-31T09:26:54.724Z,670
2018-07-31T09:27:54.455Z,455
2018-07-31T09:28:54.712Z,430
2018-07-31T09:29:54.447Z,390
2018-07-31T09:30:54.910Z,395
2018-07-31T09:31:54.447Z,375
2018-07-31T09:32:54.448Z,365
2018-07-31T09:33:54.970Z,365
2018-07-31T09:34:54.445Z,385
2018-07-31T09:35:54.698Z,370
2018-07-31T09:36:54.710Z,285
2018-07-31T09:37:54.700Z,275
2018-07-31T09:38:55.004Z,260
2018-07-31T09:39:54.171Z,250
2018-07-31T09:40:54.959Z,260
2018-07-31T09:41:54.955Z,270
2018-07-31T09:42:54.583Z,280
2018-07-31T09:43:54.436Z,295
2018-07-31T09:44:54.681Z,295
2018-07-31T09:45:54.686Z,300
2018-07-31T09:46:53.898Z,300
2018-07-31T09:47:54.414Z,305
2018-07-31T09:48:54.151Z,310
2018-07-31T09:49:54.155Z,325
2018-07-31T09:50:54.680Z,340
2018-07-31T09:51:53.879Z,345
2018-07-31T09:52:54.681Z,350
2018-07-31T09:53:54.667Z,350
2018-07-31T09:54:54.409Z,355
2018-07-31T09:55:54.666Z,350
2018-07-31T09:56:54.661Z,420
2018-07-31T09:57:54.399Z,360
2018-07-31T09:58:54.134Z,370
2018-07-31T09:59:54.661Z,345
2018-07-31T10:00:54.647Z,330
2018-07-31T10:01:54.642Z,325
2018-07-31T10:02:54.909Z,330
2018-07-31T10:03:53.851Z,340
2018-07-31T10:04:54.669Z,355
2018-07-31T10:05:54.104Z,355
2018-07-31T10:06:54.378Z,355
2018-07-31T10:07:54.642Z,355
2018-07-31T10:08:54.643Z,375
2018-07-31T10:09:54.367Z,375
2018-07-31T10:10:54.366Z,365
2018-07-31T10:11:54.219Z,395
2018-07-31T10:12:54.890Z,385
2018-07-31T10:13:54.891Z,430
2018-07-31T10:14:54.621Z,460
2018-07-31T10:15:54.620Z,890
2018-07-31T10:16:54.368Z,775
2018-07-31T10:17:54.334Z,580
2018-07-31T10:18:54.077Z,685
2018-07-31T10:19:54.943Z,335
2018-07-31T10:20:54.868Z,325
2018-07-31T10:21:54.332Z,265
2018-07-31T10:22:54.600Z,295
2018-07-31T10:23:54.600Z,305
2018-07-31T10:24:54.338Z,350
2018-07-31T10:25:54.614Z,370
2018-07-31T10:26:54.596Z,485
2018-07-31T10:27:54.595Z,450
2018-07-31T10:28:54.056Z,445
2018-07-31T10:29:54.592Z,570
2018-07-31T10:30:53.917Z,495
2018-07-31T10:31:54.853Z,740
2018-07-31T10:32:54.853Z,935
2018-07-31T10:33:54.844Z,1765
2018-07-31T10:34:54.573Z,895
2018-07-31T10:35:54.576Z,785
2018-07-31T10:36:54.845Z,1250
2018-07-31T10:37:54.863Z,1395
2018-07-31T10:38:54.040Z,1605
2018-07-31T10:39:54.572Z,1725
2018-07-31T10:40:54.307Z,1620
2018-07-31T10:41:54.576Z,1570
2018-07-31T10:42:54.573Z,1170
2018-07-31T10:43:54.565Z,415
2018-07-31T10:44:54.316Z,325
2018-07-31T10:45:54.322Z,325
2018-07-31T10:46:54.591Z,380
2018-07-31T10:47:54.843Z,435
2018-07-31T10:48:54.749Z,430
2018-07-31T10:49:54.065Z,400
2018-07-31T10:50:54.334Z,545
2018-07-31T10:51:54.857Z,810
2018-07-31T10:52:54.862Z,995
2018-07-31T10:53:54.601Z,955
2018-07-31T10:54:54.607Z,1025
2018-07-31T10:55:54.336Z,955
2018-07-31T10:56:54.075Z,1755
2018-07-31T10:57:54.364Z,1445
2018-07-31T10:58:53.813Z,345
2018-07-31T10:59:54.294Z,1810
2018-07-31T11:00:54.080Z,1880
2018-07-31T11:01:54.344Z,1890
2018-07-31T11:02:54.661Z,1980
2018-07-31T11:03:54.868Z,1960
2018-07-31T11:04:54.095Z,1965
2018-07-31T11:05:54.620Z,1875
2018-07-31T11:06:54.361Z,1780
2018-07-31T11:07:54.103Z,1850
2018-07-31T11:08:54.631Z,1915
2018-07-31T11:09:54.382Z,1870
2018-07-31T11:10:54.919Z,1820
2018-07-31T11:11:54.386Z,1795
2018-07-31T11:12:54.396Z,1800
2018-07-31T11:13:54.658Z,1855
2018-07-31T11:14:54.396Z,1785
2018-07-31T11:15:54.672Z,1825
2018-07-31T11:16:54.408Z,1860
2018-07-31T11:17:54.157Z,1850
2018-07-31T11:18:54.686Z,1755
2018-07-31T11:19:54.152Z,1690
2018-07-31T11:20:54.849Z,1590
2018-07-31T11:21:53.912Z,1560
2018-07-31T11:22:54.452Z,1565
2018-07-31T11:23:54.181Z,1620
2018-07-31T11:24:54.993Z,1685
2018-07-31T11:25:54.727Z,1770
2018-07-31T11:26:54.728Z,1770
2018-07-31T11:27:54.485Z,1865
2018-07-31T11:28:55.017Z,1905
2018-07-31T11:29:54.224Z,2005
2018-07-31T11:30:54.766Z,2000
2018-07-31T11:31:54.247Z,1960
2018-07-31T11:32:54.530Z,1910
2018-07-31T11:33:54.526Z,1940
2018-07-31T11:34:54.535Z,710
2018-07-31T11:35:54.795Z,1825
2018-07-31T11:36:55.063Z,1880
2018-07-31T11:37:54.013Z,1840
2018-07-31T11:38:54.297Z,1885
2018-07-31T11:39:54.292Z,1850
2018-07-31T11:40:54.560Z,1985
2018-07-31T11:41:54.846Z,2000
2018-07-31T11:42:54.890Z,1960
2018-07-31T11:43:54.957Z,1900
2018-07-31T11:44:54.865Z,1790
2018-07-31T11:45:55.133Z,1760
2018-07-31T11:46:54.869Z,1745
2018-07-31T11:47:54.612Z,1725
2018-07-31T11:48:54.928Z,1755
2018-07-31T11:49:55.019Z,1850
2018-07-31T11:50:55.171Z,1855
2018-07-31T11:51:54.670Z,1920
2018-07-31T11:52:54.381Z,1970
2018-07-31T11:53:55.186Z,2010
2018-07-31T11:54:54.396Z,1965
2018-07-31T11:55:54.780Z,2065
2018-07-31T11:56:54.673Z,535
2018-07-31T11:57:54.418Z,2010
2018-07-31T11:58:54.422Z,1965
2018-07-31T11:59:55.005Z,1740
2018-07-31T12:00:54.695Z,1960
2018-07-31T12:01:54.869Z,1975
2018-07-31T12:02:54.985Z,2010
2018-07-31T12:03:54.997Z,1970
2018-07-31T12:04:54.772Z,1930
2018-07-31T12:05:55.038Z,1830
2018-07-31T12:06:55.004Z,1715
2018-07-31T12:07:54.220Z,1715
2018-07-31T12:08:54.524Z,1715
2018-07-31T12:09:54.884Z,1800
2018-07-31T12:10:54.781Z,1970
2018-07-31T12:11:55.052Z,1990
2018-07-31T12:12:54.539Z,1345
2018-07-31T12:13:55.221Z,1050
2018-07-31T12:14:54.806Z,1960
2018-07-31T12:15:55.078Z,345
2018-07-31T12:16:54.553Z,350
2018-07-31T12:17:55.109Z,340
2018-07-31T12:18:54.569Z,305
2018-07-31T12:19:55.310Z,245
2018-07-31T12:20:55.652Z,245
2018-07-31T12:21:54.585Z,260
2018-07-31T12:22:55.135Z,320
2018-07-31T12:23:55.408Z,385
2018-07-31T12:24:54.926Z,440
2018-07-31T12:25:55.401Z,420
2018-07-31T12:26:55.247Z,470
2018-07-31T12:27:55.143Z,435
2018-07-31T12:28:55.157Z,1015
2018-07-31T12:29:54.892Z,1315
2018-07-31T12:30:54.895Z,1595
2018-07-31T12:31:55.162Z,520
2018-07-31T12:32:55.196Z,1855
2018-07-31T12:33:54.912Z,1310
2018-07-31T12:34:55.209Z,1740
2018-07-31T12:35:54.922Z,1935
2018-07-31T12:36:55.189Z,2035
2018-07-31T12:37:54.935Z,1820
2018-07-31T12:38:54.932Z,1965
2018-07-31T12:39:55.199Z,1920
2018-07-31T12:40:54.677Z,1855
2018-07-31T12:41:55.218Z,1775
2018-07-31T12:42:55.209Z,250
2018-07-31T12:43:54.701Z,225
2018-07-31T12:44:55.482Z,290
2018-07-31T12:45:54.978Z,535
2018-07-31T12:46:55.243Z,1425
2018-07-31T12:47:54.712Z,470
2018-07-31T12:48:55.282Z,1680
2018-07-31T12:49:55.252Z,500
2018-07-31T12:50:54.712Z,295
2018-07-31T12:51:54.993Z,290
2018-07-31T12:52:54.999Z,335
2018-07-31T12:53:54.999Z,365
2018-07-31T12:54:55.266Z,295
2018-07-31T12:55:55.006Z,255
2018-07-31T12:56:54.758Z,250
2018-07-31T12:57:55.282Z,280
2018-07-31T12:58:55.017Z,360
2018-07-31T12:59:55.052Z,1695
2018-07-31T13:00:55.289Z,1745
2018-07-31T13:01:55.558Z,390
2018-07-31T13:02:54.766Z,325
2018-07-31T13:03:55.036Z,330
2018-07-31T13:04:55.303Z,315
2018-07-31T13:05:55.053Z,1720
2018-07-31T13:06:54.784Z,1735
2018-07-31T13:07:54.788Z,500
2018-07-31T13:08:55.322Z,1840
2018-07-31T13:09:55.063Z,1730
2018-07-31T13:10:55.079Z,535
2018-07-31T13:11:55.094Z,230
2018-07-31T13:12:55.064Z,205
2018-07-31T13:13:55.069Z,215
2018-07-31T13:14:55.642Z,270
2018-07-31T13:15:55.620Z,310
2018-07-31T13:16:55.082Z,1700
2018-07-31T13:17:55.358Z,1770
2018-07-31T13:18:55.718Z,1760
2018-07-31T13:19:55.114Z,1030
2018-07-31T13:20:54.828Z,350
2018-07-31T13:21:55.378Z,445
2018-07-31T13:22:55.311Z,1505
2018-07-31T13:23:55.390Z,280
2018-07-31T13:24:55.368Z,260
2018-07-31T13:25:55.648Z,325
2018-07-31T13:26:55.108Z,290
2018-07-31T13:27:54.968Z,280
2018-07-31T13:28:55.123Z,285
2018-07-31T13:29:55.145Z,380
2018-07-31T13:30:55.001Z,460
2018-07-31T13:31:55.423Z,1650
2018-07-31T13:32:55.653Z,1860
2018-07-31T13:33:54.864Z,1800
2018-07-31T13:34:55.134Z,1770
2018-07-31T13:35:55.142Z,1725
2018-07-31T13:36:55.147Z,1760
2018-07-31T13:37:55.424Z,340
2018-07-31T13:38:55.150Z,1760
2018-07-31T13:39:54.891Z,425
2018-07-31T13:40:55.683Z,1775
2018-07-31T13:41:54.632Z,1160
2018-07-31T13:42:55.531Z,1750
2018-07-31T13:43:55.761Z,1745
2018-07-31T13:44:55.166Z,650
2018-07-31T13:45:55.463Z,460
2018-07-31T13:46:55.710Z,605
2018-07-31T13:47:55.493Z,355
2018-07-31T13:48:55.182Z,470
2018-07-31T13:49:54.977Z,360
2018-07-31T13:50:55.478Z,285
2018-07-31T13:51:55.464Z,255
2018-07-31T13:52:55.724Z,310
2018-07-31T13:53:54.960Z,1475
2018-07-31T13:54:55.208Z,1530
2018-07-31T13:55:55.218Z,410
2018-07-31T13:56:55.218Z,1525
2018-07-31T13:57:55.496Z,1500
2018-07-31T13:58:54.691Z,1435
2018-07-31T13:59:55.241Z,1410
2018-07-31T14:00:55.776Z,1460
2018-07-31T14:01:54.703Z,1560
2018-07-31T14:02:55.507Z,1620
2018-07-31T14:03:55.783Z,1605